sensor_id;sensor_type;location;lat;lon;timestamp;P1;durP1;ratioP1;P2;durP2;ratioP2
76848;SDS011;65814;51.134;16.980;2022-12-07T00:01:44;6.90;;;5.60;;
76848;SDS011;65814;51.134;16.980;2022-12-07T00:04:14;7.60;;;5.70;;
76848;SDS011;65814;51.134;16.980;2022-12-07T00:06:44;9.60;;;5.60;;
76848;SDS011;65814;51.134;16.980;2022-12-07T00:09:14;8.00;;;4.80;;
76848;SDS011;65814;51.134;16.980;2022-12-07T00:11:43;7.80;;;5.40;;
76848;SDS011;65814;51.134;16.980;2022-12-07T00:14:13;9.50;;;5.90;;
76848;SDS011;65814;51.134;16.980;2022-12-07T00:16:42;10.60;;;5.90;;
76848;SDS011;65814;51.134;16.980;2022-12-07T00:19:12;9.50;;;5.80;;
76848;SDS011;65814;51.134;16.980;2022-12-07T00:21:41;7.20;;;5.10;;
76848;SDS011;65814;51.134;16.980;2022-12-07T00:24:09;5.20;;;4.20;;
76848;SDS011;65814;51.134;16.980;2022-12-07T00:26:38;6.30;;;4.50;;
76848;SDS011;65814;51.134;16.980;2022-12-07T00:29:11;6.10;;;4.80;;
76848;SDS011;65814;51.134;16.980;2022-12-07T00:31:44;7.00;;;4.40;;
76848;SDS011;65814;51.134;16.980;2022-12-07T00:34:13;5.20;;;3.50;;
76848;SDS011;65814;51.134;16.980;2022-12-07T00:36:45;5.90;;;4.40;;
76848;SDS011;65814;51.134;16.980;2022-12-07T00:39:13;6.80;;;5.30;;
76848;SDS011;65814;51.134;16.980;2022-12-07T00:41:44;6.00;;;4.40;;
76848;SDS011;65814;51.134;16.980;2022-12-07T00:44:12;5.70;;;3.50;;
76848;SDS011;65814;51.134;16.980;2022-12-07T00:46:40;5.70;;;3.50;;
76848;SDS011;65814;51.134;16.980;2022-12-07T00:49:07;6.00;;;3.40;;
76848;SDS011;65814;51.134;16.980;2022-12-07T00:51:37;4.70;;;3.30;;
76848;SDS011;65814;51.134;16.980;2022-12-07T00:54:05;4.50;;;3.40;;
76848;SDS011;65814;51.134;16.980;2022-12-07T00:56:33;4.50;;;3.30;;
76848;SDS011;65814;51.134;16.980;2022-12-07T00:59:02;4.60;;;2.70;;
76848;SDS011;65814;51.134;16.980;2022-12-07T01:01:32;4.60;;;3.30;;
76848;SDS011;65814;51.134;16.980;2022-12-07T01:04:02;5.90;;;3.20;;
76848;SDS011;65814;51.134;16.980;2022-12-07T01:06:31;3.80;;;2.60;;
76848;SDS011;65814;51.134;16.980;2022-12-07T01:08:59;5.40;;;2.70;;
76848;SDS011;65814;51.134;16.980;2022-12-07T01:11:28;4.10;;;2.80;;
76848;SDS011;65814;51.134;16.980;2022-12-07T01:13:57;3.30;;;2.40;;
76848;SDS011;65814;51.134;16.980;2022-12-07T01:16:27;4.10;;;2.40;;
76848;SDS011;65814;51.134;16.980;2022-12-07T01:18:57;3.80;;;2.30;;
76848;SDS011;65814;51.134;16.980;2022-12-07T01:21:31;4.20;;;2.60;;
76848;SDS011;65814;51.134;16.980;2022-12-07T01:24:06;4.20;;;3.00;;
76848;SDS011;65814;51.134;16.980;2022-12-07T01:26:36;4.70;;;3.00;;
76848;SDS011;65814;51.134;16.980;2022-12-07T01:29:04;3.80;;;2.50;;
76848;SDS011;65814;51.134;16.980;2022-12-07T01:31:33;3.20;;;2.20;;
76848;SDS011;65814;51.134;16.980;2022-12-07T01:34:01;4.40;;;2.90;;
76848;SDS011;65814;51.134;16.980;2022-12-07T01:36:30;4.50;;;3.20;;
76848;SDS011;65814;51.134;16.980;2022-12-07T01:39:01;3.90;;;2.30;;
76848;SDS011;65814;51.134;16.980;2022-12-07T01:41:31;3.70;;;2.60;;
76848;SDS011;65814;51.134;16.980;2022-12-07T01:46:38;3.60;;;2.80;;
76848;SDS011;65814;51.134;16.980;2022-12-07T01:49:08;3.40;;;2.60;;
76848;SDS011;65814;51.134;16.980;2022-12-07T01:51:40;4.70;;;2.40;;
76848;SDS011;65814;51.134;16.980;2022-12-07T01:54:09;5.10;;;2.50;;
76848;SDS011;65814;51.134;16.980;2022-12-07T01:56:39;2.90;;;2.40;;
76848;SDS011;65814;51.134;16.980;2022-12-07T01:59:08;2.90;;;2.20;;
76848;SDS011;65814;51.134;16.980;2022-12-07T02:01:36;3.40;;;1.90;;
76848;SDS011;65814;51.134;16.980;2022-12-07T02:04:05;2.80;;;1.90;;
76848;SDS011;65814;51.134;16.980;2022-12-07T02:06:33;4.30;;;2.50;;
76848;SDS011;65814;51.134;16.980;2022-12-07T02:09:03;3.40;;;2.60;;
76848;SDS011;65814;51.134;16.980;2022-12-07T02:11:31;3.90;;;2.60;;
76848;SDS011;65814;51.134;16.980;2022-12-07T02:14:04;4.10;;;1.90;;
76848;SDS011;65814;51.134;16.980;2022-12-07T02:16:43;3.30;;;2.20;;
76848;SDS011;65814;51.134;16.980;2022-12-07T02:27:46;2.70;;;1.60;;
76848;SDS011;65814;51.134;16.980;2022-12-07T02:30:24;3.60;;;2.40;;
76848;SDS011;65814;51.134;16.980;2022-12-07T02:33:03;3.10;;;2.00;;
76848;SDS011;65814;51.134;16.980;2022-12-07T02:35:48;3.10;;;2.10;;
76848;SDS011;65814;51.134;16.980;2022-12-07T02:38:37;4.30;;;2.00;;
76848;SDS011;65814;51.134;16.980;2022-12-07T02:43:44;1.80;;;1.60;;
76848;SDS011;65814;51.134;16.980;2022-12-07T02:46:16;3.70;;;2.40;;
76848;SDS011;65814;51.134;16.980;2022-12-07T02:48:46;3.10;;;1.80;;
76848;SDS011;65814;51.134;16.980;2022-12-07T02:51:17;2.90;;;2.10;;
76848;SDS011;65814;51.134;16.980;2022-12-07T02:53:45;3.30;;;2.30;;
76848;SDS011;65814;51.134;16.980;2022-12-07T03:06:58;3.40;;;2.20;;
76848;SDS011;65814;51.134;16.980;2022-12-07T03:10:32;2.20;;;1.80;;
76848;SDS011;65814;51.134;16.980;2022-12-07T03:12:46;2.10;;;1.70;;
76848;SDS011;65814;51.134;16.980;2022-12-07T03:15:46;3.50;;;3.00;;
76848;SDS011;65814;51.134;16.980;2022-12-07T03:19:00;2.80;;;2.10;;
76848;SDS011;65814;51.134;16.980;2022-12-07T03:21:31;3.80;;;2.30;;
76848;SDS011;65814;51.134;16.980;2022-12-07T03:24:21;5.10;;;2.60;;
76848;SDS011;65814;51.134;16.980;2022-12-07T03:26:52;2.80;;;2.40;;
76848;SDS011;65814;51.134;16.980;2022-12-07T03:29:28;3.40;;;2.20;;
76848;SDS011;65814;51.134;16.980;2022-12-07T03:32:03;2.80;;;2.40;;
76848;SDS011;65814;51.134;16.980;2022-12-07T03:37:46;4.20;;;3.30;;
76848;SDS011;65814;51.134;16.980;2022-12-07T03:42:51;3.20;;;2.50;;
76848;SDS011;65814;51.134;16.980;2022-12-07T03:45:21;3.00;;;2.60;;
76848;SDS011;65814;51.134;16.980;2022-12-07T03:48:02;3.80;;;3.20;;
76848;SDS011;65814;51.134;16.980;2022-12-07T03:53:11;3.20;;;2.30;;
76848;SDS011;65814;51.134;16.980;2022-12-07T03:55:43;3.20;;;2.80;;
76848;SDS011;65814;51.134;16.980;2022-12-07T03:58:13;3.20;;;2.30;;
76848;SDS011;65814;51.134;16.980;2022-12-07T04:00:44;4.70;;;3.50;;
76848;SDS011;65814;51.134;16.980;2022-12-07T04:03:13;3.90;;;3.10;;
76848;SDS011;65814;51.134;16.980;2022-12-07T04:05:41;4.60;;;3.20;;
76848;SDS011;65814;51.134;16.980;2022-12-07T04:08:09;3.50;;;2.90;;
76848;SDS011;65814;51.134;16.980;2022-12-07T04:10:39;3.80;;;2.80;;
76848;SDS011;65814;51.134;16.980;2022-12-07T04:13:07;4.80;;;3.00;;
76848;SDS011;65814;51.134;16.980;2022-12-07T04:15:35;4.10;;;2.90;;
76848;SDS011;65814;51.134;16.980;2022-12-07T04:18:04;4.40;;;3.30;;
76848;SDS011;65814;51.134;16.980;2022-12-07T04:20:31;3.90;;;2.70;;
76848;SDS011;65814;51.134;16.980;2022-12-07T04:22:59;4.50;;;3.60;;
76848;SDS011;65814;51.134;16.980;2022-12-07T04:25:28;4.20;;;3.20;;
76848;SDS011;65814;51.134;16.980;2022-12-07T04:27:56;3.30;;;2.70;;
76848;SDS011;65814;51.134;16.980;2022-12-07T04:30:24;4.50;;;3.10;;
76848;SDS011;65814;51.134;16.980;2022-12-07T04:32:54;4.00;;;2.70;;
76848;SDS011;65814;51.134;16.980;2022-12-07T04:35:23;2.70;;;2.50;;
76848;SDS011;65814;51.134;16.980;2022-12-07T04:37:51;4.10;;;2.70;;
76848;SDS011;65814;51.134;16.980;2022-12-07T04:40:19;3.10;;;2.60;;
76848;SDS011;65814;51.134;16.980;2022-12-07T04:42:47;3.50;;;2.50;;
76848;SDS011;65814;51.134;16.980;2022-12-07T04:45:15;4.50;;;3.50;;
76848;SDS011;65814;51.134;16.980;2022-12-07T04:47:43;5.00;;;3.20;;
76848;SDS011;65814;51.134;16.980;2022-12-07T04:50:11;3.30;;;2.50;;
76848;SDS011;65814;51.134;16.980;2022-12-07T04:52:39;4.50;;;3.30;;
76848;SDS011;65814;51.134;16.980;2022-12-07T04:55:08;2.90;;;2.30;;
76848;SDS011;65814;51.134;16.980;2022-12-07T04:57:36;3.40;;;2.60;;
76848;SDS011;65814;51.134;16.980;2022-12-07T05:00:04;3.70;;;2.70;;
76848;SDS011;65814;51.134;16.980;2022-12-07T05:02:33;4.50;;;2.90;;
76848;SDS011;65814;51.134;16.980;2022-12-07T05:05:09;5.80;;;4.10;;
76848;SDS011;65814;51.134;16.980;2022-12-07T05:07:37;4.80;;;3.40;;
76848;SDS011;65814;51.134;16.980;2022-12-07T05:10:05;4.20;;;3.20;;
76848;SDS011;65814;51.134;16.980;2022-12-07T05:12:34;6.10;;;3.60;;
76848;SDS011;65814;51.134;16.980;2022-12-07T05:15:02;4.20;;;3.30;;
76848;SDS011;65814;51.134;16.980;2022-12-07T05:17:30;4.90;;;3.40;;
76848;SDS011;65814;51.134;16.980;2022-12-07T05:19:58;5.20;;;3.60;;
76848;SDS011;65814;51.134;16.980;2022-12-07T05:22:36;4.90;;;3.50;;
76848;SDS011;65814;51.134;16.980;2022-12-07T05:25:05;6.40;;;3.60;;
76848;SDS011;65814;51.134;16.980;2022-12-07T05:27:36;5.80;;;3.70;;
76848;SDS011;65814;51.134;16.980;2022-12-07T05:30:04;5.30;;;3.40;;
76848;SDS011;65814;51.134;16.980;2022-12-07T05:32:32;6.50;;;4.60;;
76848;SDS011;65814;51.134;16.980;2022-12-07T05:35:00;6.90;;;3.70;;
76848;SDS011;65814;51.134;16.980;2022-12-07T05:37:28;5.50;;;3.90;;
76848;SDS011;65814;51.134;16.980;2022-12-07T05:39:56;7.00;;;4.40;;
76848;SDS011;65814;51.134;16.980;2022-12-07T05:42:27;7.40;;;4.80;;
76848;SDS011;65814;51.134;16.980;2022-12-07T05:44:57;6.00;;;4.10;;
76848;SDS011;65814;51.134;16.980;2022-12-07T05:47:27;7.30;;;4.80;;
76848;SDS011;65814;51.134;16.980;2022-12-07T05:49:57;9.20;;;6.80;;
76848;SDS011;65814;51.134;16.980;2022-12-07T05:52:29;7.60;;;5.60;;
76848;SDS011;65814;51.134;16.980;2022-12-07T05:54:59;8.80;;;5.90;;
76848;SDS011;65814;51.134;16.980;2022-12-07T05:57:27;7.40;;;5.30;;
76848;SDS011;65814;51.134;16.980;2022-12-07T05:59:55;8.00;;;5.40;;
76848;SDS011;65814;51.134;16.980;2022-12-07T06:02:23;12.60;;;6.40;;
76848;SDS011;65814;51.134;16.980;2022-12-07T06:04:52;11.20;;;7.10;;
76848;SDS011;65814;51.134;16.980;2022-12-07T06:07:20;12.00;;;7.40;;
76848;SDS011;65814;51.134;16.980;2022-12-07T06:09:48;16.10;;;8.70;;
76848;SDS011;65814;51.134;16.980;2022-12-07T06:12:17;15.40;;;8.20;;
76848;SDS011;65814;51.134;16.980;2022-12-07T06:15:05;10.60;;;6.90;;
76848;SDS011;65814;51.134;16.980;2022-12-07T06:17:34;14.20;;;6.90;;
76848;SDS011;65814;51.134;16.980;2022-12-07T06:20:05;15.30;;;7.80;;
76848;SDS011;65814;51.134;16.980;2022-12-07T06:22:33;11.80;;;7.20;;
76848;SDS011;65814;51.134;16.980;2022-12-07T06:25:02;12.10;;;7.60;;
76848;SDS011;65814;51.134;16.980;2022-12-07T06:27:35;13.30;;;7.90;;
76848;SDS011;65814;51.134;16.980;2022-12-07T06:30:03;13.70;;;7.90;;
76848;SDS011;65814;51.134;16.980;2022-12-07T06:32:35;20.20;;;8.90;;
76848;SDS011;65814;51.134;16.980;2022-12-07T06:35:04;18.40;;;8.40;;
76848;SDS011;65814;51.134;16.980;2022-12-07T06:37:32;12.00;;;7.40;;
76848;SDS011;65814;51.134;16.980;2022-12-07T06:40:00;13.10;;;7.00;;
76848;SDS011;65814;51.134;16.980;2022-12-07T06:42:29;12.50;;;7.30;;
76848;SDS011;65814;51.134;16.980;2022-12-07T06:44:57;15.70;;;8.70;;
76848;SDS011;65814;51.134;16.980;2022-12-07T06:47:25;16.50;;;9.20;;
76848;SDS011;65814;51.134;16.980;2022-12-07T06:50:13;14.30;;;8.20;;
76848;SDS011;65814;51.134;16.980;2022-12-07T06:52:42;14.30;;;8.70;;
76848;SDS011;65814;51.134;16.980;2022-12-07T06:55:10;13.40;;;7.40;;
76848;SDS011;65814;51.134;16.980;2022-12-07T06:57:37;17.60;;;11.60;;
76848;SDS011;65814;51.134;16.980;2022-12-07T07:00:06;16.00;;;10.50;;
76848;SDS011;65814;51.134;16.980;2022-12-07T07:02:34;17.00;;;8.00;;
76848;SDS011;65814;51.134;16.980;2022-12-07T07:05:03;14.70;;;8.20;;
76848;SDS011;65814;51.134;16.980;2022-12-07T07:07:31;13.20;;;7.40;;
76848;SDS011;65814;51.134;16.980;2022-12-07T07:10:19;11.00;;;7.00;;
76848;SDS011;65814;51.134;16.980;2022-12-07T07:12:48;12.90;;;7.80;;
76848;SDS011;65814;51.134;16.980;2022-12-07T07:15:24;13.30;;;8.10;;
76848;SDS011;65814;51.134;16.980;2022-12-07T07:17:52;14.00;;;7.50;;
76848;SDS011;65814;51.134;16.980;2022-12-07T07:20:20;14.20;;;7.60;;
76848;SDS011;65814;51.134;16.980;2022-12-07T07:22:48;11.60;;;6.40;;
76848;SDS011;65814;51.134;16.980;2022-12-07T07:25:17;15.40;;;8.60;;
76848;SDS011;65814;51.134;16.980;2022-12-07T07:27:45;14.50;;;7.90;;
76848;SDS011;65814;51.134;16.980;2022-12-07T07:30:13;12.70;;;7.80;;
76848;SDS011;65814;51.134;16.980;2022-12-07T07:32:41;12.60;;;7.30;;
76848;SDS011;65814;51.134;16.980;2022-12-07T07:35:10;15.00;;;8.40;;
76848;SDS011;65814;51.134;16.980;2022-12-07T07:37:39;13.00;;;7.60;;
76848;SDS011;65814;51.134;16.980;2022-12-07T07:40:09;13.90;;;7.60;;
76848;SDS011;65814;51.134;16.980;2022-12-07T07:42:37;13.70;;;7.20;;
76848;SDS011;65814;51.134;16.980;2022-12-07T07:45:05;14.70;;;6.90;;
76848;SDS011;65814;51.134;16.980;2022-12-07T07:47:33;12.80;;;8.90;;
76848;SDS011;65814;51.134;16.980;2022-12-07T07:50:01;14.20;;;7.20;;
76848;SDS011;65814;51.134;16.980;2022-12-07T07:52:30;18.40;;;9.20;;
76848;SDS011;65814;51.134;16.980;2022-12-07T07:54:58;16.80;;;8.50;;
76848;SDS011;65814;51.134;16.980;2022-12-07T07:57:27;11.70;;;7.80;;
76848;SDS011;65814;51.134;16.980;2022-12-07T07:59:55;11.20;;;7.40;;
76848;SDS011;65814;51.134;16.980;2022-12-07T08:02:23;14.50;;;7.80;;
76848;SDS011;65814;51.134;16.980;2022-12-07T08:04:52;12.20;;;7.70;;
76848;SDS011;65814;51.134;16.980;2022-12-07T08:07:20;11.50;;;6.70;;
76848;SDS011;65814;51.134;16.980;2022-12-07T08:09:48;12.80;;;7.40;;
76848;SDS011;65814;51.134;16.980;2022-12-07T08:12:17;10.90;;;6.60;;
76848;SDS011;65814;51.134;16.980;2022-12-07T08:14:45;15.10;;;8.30;;
76848;SDS011;65814;51.134;16.980;2022-12-07T08:17:13;14.40;;;7.10;;
76848;SDS011;65814;51.134;16.980;2022-12-07T08:19:41;15.10;;;9.50;;
76848;SDS011;65814;51.134;16.980;2022-12-07T08:22:10;18.60;;;9.30;;
76848;SDS011;65814;51.134;16.980;2022-12-07T08:24:38;14.80;;;8.60;;
76848;SDS011;65814;51.134;16.980;2022-12-07T08:27:06;14.20;;;8.70;;
76848;SDS011;65814;51.134;16.980;2022-12-07T08:29:34;15.50;;;9.00;;
76848;SDS011;65814;51.134;16.980;2022-12-07T08:32:02;12.50;;;7.20;;
76848;SDS011;65814;51.134;16.980;2022-12-07T08:34:38;13.10;;;8.60;;
76848;SDS011;65814;51.134;16.980;2022-12-07T08:37:06;12.20;;;8.20;;
76848;SDS011;65814;51.134;16.980;2022-12-07T08:39:34;12.40;;;6.70;;
76848;SDS011;65814;51.134;16.980;2022-12-07T08:42:03;12.10;;;6.90;;
76848;SDS011;65814;51.134;16.980;2022-12-07T08:44:31;14.30;;;8.60;;
76848;SDS011;65814;51.134;16.980;2022-12-07T08:47:00;15.80;;;8.90;;
76848;SDS011;65814;51.134;16.980;2022-12-07T08:49:38;13.40;;;7.50;;
76848;SDS011;65814;51.134;16.980;2022-12-07T08:52:07;12.60;;;7.50;;
76848;SDS011;65814;51.134;16.980;2022-12-07T08:54:36;10.40;;;6.90;;
76848;SDS011;65814;51.134;16.980;2022-12-07T08:57:05;11.50;;;8.10;;
76848;SDS011;65814;51.134;16.980;2022-12-07T08:59:34;11.50;;;7.50;;
76848;SDS011;65814;51.134;16.980;2022-12-07T09:02:03;10.70;;;6.70;;
76848;SDS011;65814;51.134;16.980;2022-12-07T09:04:32;14.80;;;7.20;;
76848;SDS011;65814;51.134;16.980;2022-12-07T09:07:01;11.20;;;6.70;;
76848;SDS011;65814;51.134;16.980;2022-12-07T09:09:29;10.50;;;6.10;;
76848;SDS011;65814;51.134;16.980;2022-12-07T09:11:57;10.20;;;6.90;;
76848;SDS011;65814;51.134;16.980;2022-12-07T09:14:25;11.40;;;6.80;;
76848;SDS011;65814;51.134;16.980;2022-12-07T09:16:53;10.50;;;6.70;;
76848;SDS011;65814;51.134;16.980;2022-12-07T09:19:21;11.20;;;6.90;;
76848;SDS011;65814;51.134;16.980;2022-12-07T09:21:52;10.70;;;6.30;;
76848;SDS011;65814;51.134;16.980;2022-12-07T09:24:20;11.50;;;7.70;;
76848;SDS011;65814;51.134;16.980;2022-12-07T09:26:50;10.90;;;6.60;;
76848;SDS011;65814;51.134;16.980;2022-12-07T09:29:18;9.40;;;5.90;;
76848;SDS011;65814;51.134;16.980;2022-12-07T09:31:47;11.00;;;6.50;;
76848;SDS011;65814;51.134;16.980;2022-12-07T09:34:14;9.80;;;6.20;;
76848;SDS011;65814;51.134;16.980;2022-12-07T09:36:42;7.90;;;6.10;;
76848;SDS011;65814;51.134;16.980;2022-12-07T09:39:11;6.90;;;5.20;;
76848;SDS011;65814;51.134;16.980;2022-12-07T09:41:41;8.00;;;5.30;;
76848;SDS011;65814;51.134;16.980;2022-12-07T09:44:12;7.90;;;6.00;;
76848;SDS011;65814;51.134;16.980;2022-12-07T09:46:42;6.60;;;4.10;;
76848;SDS011;65814;51.134;16.980;2022-12-07T09:49:12;6.90;;;4.80;;
76848;SDS011;65814;51.134;16.980;2022-12-07T09:51:46;7.50;;;4.90;;
76848;SDS011;65814;51.134;16.980;2022-12-07T09:54:15;6.00;;;4.10;;
76848;SDS011;65814;51.134;16.980;2022-12-07T09:56:44;8.40;;;4.50;;
76848;SDS011;65814;51.134;16.980;2022-12-07T09:59:13;6.20;;;4.30;;
76848;SDS011;65814;51.134;16.980;2022-12-07T10:01:47;5.40;;;3.90;;
76848;SDS011;65814;51.134;16.980;2022-12-07T10:04:18;8.60;;;6.10;;
76848;SDS011;65814;51.134;16.980;2022-12-07T10:09:19;8.40;;;5.00;;
76848;SDS011;65814;51.134;16.980;2022-12-07T10:12:02;7.50;;;4.60;;
76848;SDS011;65814;51.134;16.980;2022-12-07T10:14:39;7.40;;;4.40;;
76848;SDS011;65814;51.134;16.980;2022-12-07T10:25:47;7.40;;;4.30;;
76848;SDS011;65814;51.134;16.980;2022-12-07T10:28:17;5.50;;;4.00;;
76848;SDS011;65814;51.134;16.980;2022-12-07T10:33:29;5.90;;;4.10;;
76848;SDS011;65814;51.134;16.980;2022-12-07T10:41:52;5.40;;;3.00;;
76848;SDS011;65814;51.134;16.980;2022-12-07T10:44:28;8.10;;;4.60;;
76848;SDS011;65814;51.134;16.980;2022-12-07T11:06:27;5.50;;;3.40;;
76848;SDS011;65814;51.134;16.980;2022-12-07T11:29:32;6.40;;;3.90;;
76848;SDS011;65814;51.134;16.980;2022-12-07T11:37:51;2.80;;;2.50;;
76848;SDS011;65814;51.134;16.980;2022-12-07T11:40:50;4.20;;;3.30;;
76848;SDS011;65814;51.134;16.980;2022-12-07T11:43:23;5.00;;;3.10;;
76848;SDS011;65814;51.134;16.980;2022-12-07T11:51:31;3.20;;;2.90;;
76848;SDS011;65814;51.134;16.980;2022-12-07T11:54:03;5.70;;;3.20;;
76848;SDS011;65814;51.134;16.980;2022-12-07T11:56:39;5.30;;;3.10;;
76848;SDS011;65814;51.134;16.980;2022-12-07T11:59:16;4.70;;;3.20;;
76848;SDS011;65814;51.134;16.980;2022-12-07T12:04:27;5.80;;;3.10;;
76848;SDS011;65814;51.134;16.980;2022-12-07T12:07:06;4.00;;;2.70;;
76848;SDS011;65814;51.134;16.980;2022-12-07T12:09:59;4.50;;;3.70;;
76848;SDS011;65814;51.134;16.980;2022-12-07T12:18:51;4.40;;;3.20;;
76848;SDS011;65814;51.134;16.980;2022-12-07T12:21:27;4.70;;;3.00;;
76848;SDS011;65814;51.134;16.980;2022-12-07T12:24:38;5.10;;;3.20;;
76848;SDS011;65814;51.134;16.980;2022-12-07T12:30:06;4.10;;;3.40;;
76848;SDS011;65814;51.134;16.980;2022-12-07T12:33:00;5.50;;;3.30;;
76848;SDS011;65814;51.134;16.980;2022-12-07T12:35:31;6.80;;;3.50;;
76848;SDS011;65814;51.134;16.980;2022-12-07T12:38:25;4.60;;;3.00;;
76848;SDS011;65814;51.134;16.980;2022-12-07T12:47:00;6.20;;;3.90;;
76848;SDS011;65814;51.134;16.980;2022-12-07T12:57:35;5.60;;;3.10;;
76848;SDS011;65814;51.134;16.980;2022-12-07T13:02:48;4.80;;;3.50;;
76848;SDS011;65814;51.134;16.980;2022-12-07T13:05:27;6.20;;;3.50;;
76848;SDS011;65814;51.134;16.980;2022-12-07T13:08:03;4.60;;;3.10;;
76848;SDS011;65814;51.134;16.980;2022-12-07T13:10:39;4.40;;;3.60;;
76848;SDS011;65814;51.134;16.980;2022-12-07T13:18:37;7.70;;;4.70;;
76848;SDS011;65814;51.134;16.980;2022-12-07T13:23:37;4.50;;;3.30;;
76848;SDS011;65814;51.134;16.980;2022-12-07T13:29:06;4.80;;;3.60;;
76848;SDS011;65814;51.134;16.980;2022-12-07T13:31:42;5.30;;;3.40;;
76848;SDS011;65814;51.134;16.980;2022-12-07T13:34:33;8.50;;;3.90;;
76848;SDS011;65814;51.134;16.980;2022-12-07T13:37:02;5.80;;;4.20;;
76848;SDS011;65814;51.134;16.980;2022-12-07T13:42:45;5.00;;;3.90;;
76848;SDS011;65814;51.134;16.980;2022-12-07T13:45:32;5.20;;;4.00;;
76848;SDS011;65814;51.134;16.980;2022-12-07T13:48:41;8.20;;;4.30;;
76848;SDS011;65814;51.134;16.980;2022-12-07T13:51:19;7.10;;;5.30;;
76848;SDS011;65814;51.134;16.980;2022-12-07T13:53:54;6.30;;;4.30;;
76848;SDS011;65814;51.134;16.980;2022-12-07T13:56:26;5.20;;;3.30;;
76848;SDS011;65814;51.134;16.980;2022-12-07T13:59:00;6.70;;;4.00;;
76848;SDS011;65814;51.134;16.980;2022-12-07T14:01:30;6.20;;;3.40;;
76848;SDS011;65814;51.134;16.980;2022-12-07T14:06:48;7.60;;;4.50;;
76848;SDS011;65814;51.134;16.980;2022-12-07T14:09:21;5.00;;;4.20;;
76848;SDS011;65814;51.134;16.980;2022-12-07T14:11:52;6.70;;;4.50;;
76848;SDS011;65814;51.134;16.980;2022-12-07T14:14:22;6.30;;;4.50;;
76848;SDS011;65814;51.134;16.980;2022-12-07T14:22:36;9.60;;;4.10;;
76848;SDS011;65814;51.134;16.980;2022-12-07T14:25:22;6.20;;;4.40;;
76848;SDS011;65814;51.134;16.980;2022-12-07T14:27:54;7.30;;;4.50;;
76848;SDS011;65814;51.134;16.980;2022-12-07T14:30:33;5.80;;;4.10;;
76848;SDS011;65814;51.134;16.980;2022-12-07T14:33:03;6.50;;;4.00;;
76848;SDS011;65814;51.134;16.980;2022-12-07T14:35:32;6.30;;;3.70;;
76848;SDS011;65814;51.134;16.980;2022-12-07T14:38:00;6.00;;;3.70;;
76848;SDS011;65814;51.134;16.980;2022-12-07T14:40:28;7.20;;;4.30;;
76848;SDS011;65814;51.134;16.980;2022-12-07T14:43:00;7.10;;;4.60;;
76848;SDS011;65814;51.134;16.980;2022-12-07T14:45:39;5.00;;;3.10;;
76848;SDS011;65814;51.134;16.980;2022-12-07T14:48:10;5.70;;;3.10;;
76848;SDS011;65814;51.134;16.980;2022-12-07T14:50:59;4.80;;;3.20;;
76848;SDS011;65814;51.134;16.980;2022-12-07T14:53:48;5.70;;;3.50;;
76848;SDS011;65814;51.134;16.980;2022-12-07T14:56:24;3.30;;;2.90;;
76848;SDS011;65814;51.134;16.980;2022-12-07T14:58:53;4.90;;;3.20;;
76848;SDS011;65814;51.134;16.980;2022-12-07T15:01:21;6.30;;;3.80;;
76848;SDS011;65814;51.134;16.980;2022-12-07T15:03:50;6.10;;;4.20;;
76848;SDS011;65814;51.134;16.980;2022-12-07T15:06:21;7.00;;;4.90;;
76848;SDS011;65814;51.134;16.980;2022-12-07T15:08:50;6.10;;;3.80;;
76848;SDS011;65814;51.134;16.980;2022-12-07T15:11:18;4.70;;;3.80;;
76848;SDS011;65814;51.134;16.980;2022-12-07T15:13:47;5.00;;;3.60;;
76848;SDS011;65814;51.134;16.980;2022-12-07T15:16:35;5.30;;;4.10;;
76848;SDS011;65814;51.134;16.980;2022-12-07T15:19:24;6.80;;;3.90;;
76848;SDS011;65814;51.134;16.980;2022-12-07T15:21:57;5.80;;;3.70;;
76848;SDS011;65814;51.134;16.980;2022-12-07T15:24:26;5.90;;;3.20;;
76848;SDS011;65814;51.134;16.980;2022-12-07T15:26:54;7.00;;;4.00;;
76848;SDS011;65814;51.134;16.980;2022-12-07T15:29:22;6.30;;;3.90;;
76848;SDS011;65814;51.134;16.980;2022-12-07T15:31:51;5.50;;;4.10;;
76848;SDS011;65814;51.134;16.980;2022-12-07T15:34:27;6.30;;;3.80;;
76848;SDS011;65814;51.134;16.980;2022-12-07T15:37:06;7.20;;;4.30;;
76848;SDS011;65814;51.134;16.980;2022-12-07T15:39:35;8.00;;;5.30;;
76848;SDS011;65814;51.134;16.980;2022-12-07T15:42:04;9.30;;;5.10;;
76848;SDS011;65814;51.134;16.980;2022-12-07T15:44:32;6.60;;;4.10;;
76848;SDS011;65814;51.134;16.980;2022-12-07T15:47:19;9.50;;;4.50;;
76848;SDS011;65814;51.134;16.980;2022-12-07T15:49:48;5.90;;;4.40;;
76848;SDS011;65814;51.134;16.980;2022-12-07T15:52:17;4.90;;;3.80;;
76848;SDS011;65814;51.134;16.980;2022-12-07T15:54:46;7.40;;;4.80;;
76848;SDS011;65814;51.134;16.980;2022-12-07T15:57:15;6.60;;;4.80;;
76848;SDS011;65814;51.134;16.980;2022-12-07T15:59:51;7.50;;;4.30;;
76848;SDS011;65814;51.134;16.980;2022-12-07T16:02:19;9.80;;;5.20;;
76848;SDS011;65814;51.134;16.980;2022-12-07T16:04:49;7.10;;;4.40;;
76848;SDS011;65814;51.134;16.980;2022-12-07T16:07:17;8.40;;;4.90;;
76848;SDS011;65814;51.134;16.980;2022-12-07T16:09:46;7.40;;;4.30;;
76848;SDS011;65814;51.134;16.980;2022-12-07T16:12:15;8.70;;;5.60;;
76848;SDS011;65814;51.134;16.980;2022-12-07T16:14:43;10.40;;;6.10;;
76848;SDS011;65814;51.134;16.980;2022-12-07T16:17:11;8.20;;;5.50;;
76848;SDS011;65814;51.134;16.980;2022-12-07T16:19:39;8.90;;;6.30;;
76848;SDS011;65814;51.134;16.980;2022-12-07T16:22:07;12.30;;;5.10;;
76848;SDS011;65814;51.134;16.980;2022-12-07T16:24:35;9.70;;;5.10;;
76848;SDS011;65814;51.134;16.980;2022-12-07T16:27:03;7.90;;;5.80;;
76848;SDS011;65814;51.134;16.980;2022-12-07T16:29:31;6.40;;;5.00;;
76848;SDS011;65814;51.134;16.980;2022-12-07T16:31:59;8.80;;;5.10;;
76848;SDS011;65814;51.134;16.980;2022-12-07T16:34:28;9.00;;;5.20;;
76848;SDS011;65814;51.134;16.980;2022-12-07T16:36:56;10.60;;;5.60;;
76848;SDS011;65814;51.134;16.980;2022-12-07T16:39:32;10.00;;;4.80;;
76848;SDS011;65814;51.134;16.980;2022-12-07T16:42:02;9.30;;;5.50;;
76848;SDS011;65814;51.134;16.980;2022-12-07T16:44:30;7.40;;;4.40;;
76848;SDS011;65814;51.134;16.980;2022-12-07T16:46:59;7.80;;;5.60;;
76848;SDS011;65814;51.134;16.980;2022-12-07T16:49:28;9.80;;;5.30;;
76848;SDS011;65814;51.134;16.980;2022-12-07T16:51:57;8.30;;;4.80;;
76848;SDS011;65814;51.134;16.980;2022-12-07T16:54:45;9.00;;;5.80;;
76848;SDS011;65814;51.134;16.980;2022-12-07T16:57:14;9.10;;;5.90;;
76848;SDS011;65814;51.134;16.980;2022-12-07T16:59:51;8.40;;;4.90;;
76848;SDS011;65814;51.134;16.980;2022-12-07T17:02:19;9.00;;;5.70;;
76848;SDS011;65814;51.134;16.980;2022-12-07T17:04:48;9.00;;;5.50;;
76848;SDS011;65814;51.134;16.980;2022-12-07T17:07:16;9.20;;;4.70;;
76848;SDS011;65814;51.134;16.980;2022-12-07T17:09:44;8.40;;;5.80;;
76848;SDS011;65814;51.134;16.980;2022-12-07T17:12:12;7.60;;;4.80;;
76848;SDS011;65814;51.134;16.980;2022-12-07T17:14:40;11.50;;;4.20;;
76848;SDS011;65814;51.134;16.980;2022-12-07T17:17:28;9.70;;;5.70;;
76848;SDS011;65814;51.134;16.980;2022-12-07T17:19:56;8.30;;;5.70;;
76848;SDS011;65814;51.134;16.980;2022-12-07T17:22:24;7.20;;;4.60;;
76848;SDS011;65814;51.134;16.980;2022-12-07T17:24:52;7.70;;;4.50;;
76848;SDS011;65814;51.134;16.980;2022-12-07T17:27:20;7.80;;;4.40;;
76848;SDS011;65814;51.134;16.980;2022-12-07T17:29:49;7.70;;;4.90;;
76848;SDS011;65814;51.134;16.980;2022-12-07T17:32:18;7.70;;;4.50;;